createdAt,value
2019-03-31T00:01:20.310Z,11.10
2019-03-31T00:06:45.550Z,11.00
2019-03-31T00:12:10.600Z,11.00
2019-03-31T00:17:35.603Z,11.10
2019-03-31T00:23:00.482Z,11.00
2019-03-31T00:28:25.327Z,11.00
2019-03-31T00:33:50.579Z,11.00
2019-03-31T00:39:15.784Z,10.90
2019-03-31T00:44:40.716Z,10.90
2019-03-31T00:50:05.959Z,10.90
2019-03-31T00:55:31.554Z,10.80
2019-03-31T01:01:15.811Z,10.90
2019-03-31T01:06:41.467Z,10.90
2019-03-31T01:12:07.187Z,10.90
2019-03-31T01:17:32.530Z,11.00
2019-03-31T01:22:57.339Z,10.80
2019-03-31T01:28:23.099Z,10.80
2019-03-31T01:33:47.799Z,10.80
2019-03-31T01:39:13.474Z,10.90
2019-03-31T01:44:38.822Z,10.90
2019-03-31T01:50:04.860Z,11.00
2019-03-31T01:55:30.546Z,10.90
2019-03-31T02:00:59.483Z,11.00
2019-03-31T02:06:25.235Z,11.20
2019-03-31T02:11:50.622Z,11.30
2019-03-31T02:17:16.255Z,11.40
2019-03-31T02:22:41.439Z,11.40
2019-03-31T02:28:06.401Z,11.50
2019-03-31T02:33:31.325Z,11.50
2019-03-31T02:38:56.360Z,11.60
2019-03-31T02:44:21.103Z,11.70
2019-03-31T02:49:45.460Z,11.70
2019-03-31T02:55:10.382Z,11.80
2019-03-31T03:00:35.309Z,11.80
2019-03-31T03:06:01.631Z,11.90
2019-03-31T03:11:30.296Z,12.00
2019-03-31T03:16:55.013Z,12.00
2019-03-31T03:22:20.551Z,12.00
2019-03-31T03:27:46.169Z,12.10
2019-03-31T03:33:15.642Z,12.20
2019-03-31T03:38:38.093Z,12.10
2019-03-31T03:44:03.416Z,12.30
2019-03-31T03:49:28.211Z,12.60
2019-03-31T03:54:53.504Z,12.80
2019-03-31T04:00:18.154Z,12.90
2019-03-31T04:05:43.649Z,13.00
2019-03-31T04:11:13.486Z,13.00
2019-03-31T04:16:38.031Z,13.10
2019-03-31T04:22:02.915Z,13.10
2019-03-31T04:27:27.831Z,13.10
2019-03-31T04:32:52.525Z,13.20
2019-03-31T04:38:17.706Z,13.40
2019-03-31T04:43:42.685Z,13.30
2019-03-31T04:49:07.374Z,13.30
2019-03-31T04:54:32.214Z,13.30
2019-03-31T04:59:57.080Z,13.20
2019-03-31T05:05:22.003Z,13.00
2019-03-31T05:10:47.210Z,12.90
2019-03-31T05:16:12.817Z,13.00
2019-03-31T05:21:38.141Z,13.00
2019-03-31T05:27:02.990Z,13.00
2019-03-31T05:32:28.172Z,13.00
2019-03-31T05:37:53.289Z,13.10
2019-03-31T05:43:18.359Z,13.00
2019-03-31T05:48:43.148Z,13.20
2019-03-31T05:54:08.736Z,13.30
2019-03-31T05:59:33.591Z,13.30
2019-03-31T06:04:58.586Z,13.20
2019-03-31T06:10:23.615Z,13.20
2019-03-31T06:15:48.670Z,13.20
2019-03-31T06:21:14.007Z,13.20
2019-03-31T06:26:39.499Z,13.40
2019-03-31T06:32:04.018Z,13.50
2019-03-31T06:37:29.334Z,13.60
2019-03-31T06:42:54.294Z,13.70
2019-03-31T06:48:19.521Z,13.70
2019-03-31T06:53:44.746Z,13.50
2019-03-31T06:59:10.534Z,13.50
2019-03-31T07:04:35.947Z,13.60
2019-03-31T07:10:00.668Z,13.70
2019-03-31T07:15:25.956Z,13.60
2019-03-31T07:20:50.917Z,13.70
2019-03-31T07:26:16.062Z,13.80
2019-03-31T07:31:41.586Z,14.00
2019-03-31T07:37:06.570Z,13.90
2019-03-31T07:42:33.229Z,14.20
2019-03-31T07:47:58.401Z,14.30
2019-03-31T07:53:23.472Z,14.10
2019-03-31T07:58:48.375Z,14.10
2019-03-31T08:04:13.191Z,14.40
2019-03-31T08:09:37.954Z,14.30
2019-03-31T08:15:03.284Z,14.60
2019-03-31T08:20:28.445Z,14.60
2019-03-31T08:25:53.644Z,14.50
2019-03-31T08:31:18.663Z,14.50
2019-03-31T08:36:43.978Z,15.00
2019-03-31T08:42:08.803Z,15.30
2019-03-31T08:47:34.031Z,15.60
2019-03-31T08:52:59.250Z,16.10
2019-03-31T08:58:24.476Z,16.00
2019-03-31T09:03:49.811Z,16.40
2019-03-31T09:09:15.436Z,16.40
2019-03-31T09:14:41.245Z,15.80
2019-03-31T09:20:07.036Z,16.00
2019-03-31T09:25:32.235Z,16.40
2019-03-31T09:30:57.653Z,16.70
2019-03-31T09:36:22.421Z,16.80
2019-03-31T09:41:47.817Z,17.20
2019-03-31T09:47:13.133Z,17.10
2019-03-31T09:52:38.640Z,17.00
2019-03-31T09:58:04.113Z,17.10
2019-03-31T10:03:29.304Z,17.00
2019-03-31T10:08:54.732Z,17.10
2019-03-31T10:14:21.776Z,16.50
2019-03-31T10:19:46.555Z,16.80
2019-03-31T10:25:13.337Z,16.80
2019-03-31T10:30:38.970Z,17.00
2019-03-31T10:36:03.922Z,17.30
2019-03-31T10:41:30.935Z,17.80
2019-03-31T10:46:58.512Z,17.90
2019-03-31T10:52:23.536Z,18.00
2019-03-31T10:57:48.863Z,18.90
2019-03-31T11:03:13.925Z,18.00
2019-03-31T11:08:39.308Z,18.00
2019-03-31T11:14:04.714Z,18.30
2019-03-31T11:19:29.662Z,18.30
2019-03-31T11:24:54.960Z,18.40
2019-03-31T11:30:19.858Z,19.00
2019-03-31T11:35:45.283Z,19.40
2019-03-31T11:41:10.633Z,20.00
2019-03-31T11:46:35.648Z,19.90
2019-03-31T11:52:00.648Z,20.20
2019-03-31T11:57:25.923Z,20.30
2019-03-31T12:02:51.342Z,19.80
2019-03-31T12:08:18.149Z,18.80
2019-03-31T12:13:43.082Z,19.50
2019-03-31T12:19:08.252Z,19.50
2019-03-31T12:24:33.396Z,19.60
2019-03-31T12:30:00.465Z,18.90
2019-03-31T12:35:25.158Z,19.10
2019-03-31T12:40:49.857Z,20.30
2019-03-31T12:46:14.792Z,19.60
2019-03-31T12:51:39.465Z,19.50
2019-03-31T12:57:04.784Z,20.80
2019-03-31T13:02:29.748Z,21.10
2019-03-31T13:07:56.496Z,20.30
2019-03-31T13:13:21.246Z,20.00
2019-03-31T13:18:59.360Z,19.80
2019-03-31T13:24:24.214Z,20.20
2019-03-31T13:29:49.491Z,21.00
2019-03-31T13:35:15.037Z,20.90
2019-03-31T13:40:40.292Z,21.20
2019-03-31T13:46:05.131Z,21.50
2019-03-31T13:51:32.106Z,22.10
2019-03-31T13:56:58.028Z,22.30
2019-03-31T14:02:23.363Z,21.90
2019-03-31T14:07:47.875Z,20.60
2019-03-31T14:13:13.162Z,20.40
2019-03-31T14:18:38.181Z,21.80
2019-03-31T14:24:06.690Z,22.40
2019-03-31T14:29:31.216Z,21.30
2019-03-31T14:34:56.593Z,21.80
2019-03-31T14:40:21.541Z,19.90
2019-03-31T14:45:46.923Z,18.90
2019-03-31T14:51:11.691Z,18.80
2019-03-31T14:56:36.231Z,18.10
2019-03-31T15:02:01.215Z,18.50
2019-03-31T15:07:26.267Z,18.70
2019-03-31T15:12:51.103Z,18.40
2019-03-31T15:18:15.912Z,18.30
2019-03-31T15:23:40.468Z,17.70
2019-03-31T15:29:05.331Z,17.80
2019-03-31T15:34:30.386Z,17.80
2019-03-31T15:39:55.356Z,16.80
2019-03-31T15:45:20.737Z,16.70
2019-03-31T15:50:45.668Z,16.80
2019-03-31T15:56:10.515Z,16.90
2019-03-31T16:01:35.226Z,17.30
2019-03-31T16:07:00.423Z,17.50
2019-03-31T16:12:24.491Z,17.60
2019-03-31T16:17:48.777Z,17.30
2019-03-31T16:23:13.052Z,17.10
2019-03-31T16:28:37.846Z,16.60
2019-03-31T16:34:02.144Z,16.50
2019-03-31T16:39:37.095Z,16.60
2019-03-31T16:44:58.214Z,16.30
2019-03-31T16:50:18.465Z,15.90
2019-03-31T16:55:43.434Z,15.70
2019-03-31T17:01:07.723Z,15.70
2019-03-31T17:06:31.908Z,15.70
2019-03-31T17:11:56.196Z,15.60
2019-03-31T17:17:21.034Z,15.50
2019-03-31T17:22:45.259Z,15.50
2019-03-31T17:28:10.276Z,15.30
2019-03-31T17:33:34.902Z,15.50
2019-03-31T17:38:59.556Z,15.30
2019-03-31T17:44:23.786Z,15.20
2019-03-31T17:49:48.502Z,15.30
2019-03-31T17:55:13.334Z,15.30
2019-03-31T18:00:38.323Z,15.40
2019-03-31T18:06:02.927Z,15.30
2019-03-31T18:11:27.580Z,15.20
2019-03-31T18:16:52.207Z,15.20
2019-03-31T18:22:17.179Z,15.30
2019-03-31T18:27:42.936Z,15.30
2019-03-31T18:33:07.131Z,15.30
2019-03-31T18:38:31.287Z,15.20
2019-03-31T18:43:55.934Z,15.20
2019-03-31T18:49:20.430Z,15.20
2019-03-31T18:55:02.427Z,15.10
2019-03-31T19:00:45.910Z,15.00
2019-03-31T19:06:34.378Z,15.00
2019-03-31T19:12:27.720Z,15.20
2019-03-31T19:18:09.474Z,15.20
2019-03-31T19:23:47.008Z,15.10
2019-03-31T19:29:30.883Z,15.30
2019-03-31T19:35:18.824Z,15.30
2019-03-31T19:41:04.077Z,15.30
2019-03-31T19:46:47.604Z,15.20
2019-03-31T19:52:33.818Z,15.20
2019-03-31T19:58:21.196Z,15.20
2019-03-31T20:04:03.966Z,15.00
2019-03-31T20:09:37.185Z,14.90
2019-03-31T20:15:36.005Z,15.00
2019-03-31T20:21:08.216Z,15.10
2019-03-31T20:26:56.926Z,15.00
2019-03-31T20:32:32.728Z,15.00
2019-03-31T20:38:28.143Z,14.90
2019-03-31T20:43:54.176Z,15.00
2019-03-31T20:49:18.785Z,14.70
2019-03-31T20:54:43.855Z,14.80
2019-03-31T21:00:09.488Z,14.70
2019-03-31T21:05:33.751Z,14.90
2019-03-31T21:10:57.743Z,14.70
2019-03-31T21:16:22.140Z,14.80
2019-03-31T21:21:46.360Z,14.90
2019-03-31T21:27:11.090Z,14.80
2019-03-31T21:32:35.312Z,14.50
2019-03-31T21:38:00.313Z,14.50
2019-03-31T21:43:24.489Z,14.30
2019-03-31T21:48:48.497Z,14.20
2019-03-31T21:54:12.741Z,14.30
2019-03-31T21:59:36.863Z,14.30
2019-03-31T22:05:01.094Z,14.30
2019-03-31T22:10:25.514Z,14.20
2019-03-31T22:15:50.286Z,14.20
2019-03-31T22:21:14.514Z,14.20
2019-03-31T22:26:39.349Z,14.10
2019-03-31T22:32:21.170Z,14.10
2019-03-31T22:37:45.483Z,14.10
2019-03-31T22:43:10.186Z,13.70
2019-03-31T22:48:34.410Z,13.70
2019-03-31T22:53:58.741Z,13.70
2019-03-31T22:59:23.138Z,13.80
2019-03-31T23:04:47.498Z,13.50
2019-03-31T23:10:12.045Z,13.30
2019-03-31T23:15:36.245Z,13.30
2019-03-31T23:21:00.357Z,13.40
2019-03-31T23:26:24.635Z,13.50
2019-03-31T23:31:49.137Z,13.50
2019-03-31T23:37:13.487Z,13.40
2019-03-31T23:42:37.974Z,13.40
2019-03-31T23:48:02.504Z,13.40
2019-03-31T23:53:26.559Z,13.20
2019-03-31T23:58:50.797Z,13.10
